createdAt,value
2023-03-06T00:05:33.889Z,4.4
2023-03-06T00:11:24.980Z,4.5
2023-03-06T00:17:17.155Z,4.4
2023-03-06T00:23:09.731Z,4.4
2023-03-06T00:29:04.579Z,4.3
2023-03-06T00:34:57.927Z,4.4
2023-03-06T00:40:49.591Z,4.4
2023-03-06T00:46:42.729Z,4.4
2023-03-06T00:52:35.701Z,4.5
2023-03-06T00:58:26.987Z,4.4
2023-03-06T01:04:18.740Z,4.3
2023-03-06T01:10:16.790Z,4.4
2023-03-06T01:16:11.870Z,4.4
2023-03-06T01:22:05.023Z,4.3
2023-03-06T01:27:57.209Z,4.4
2023-03-06T01:34:00.529Z,4.3
2023-03-06T01:39:57.348Z,4.3
2023-03-06T01:45:48.850Z,4.1
2023-03-06T01:51:46.291Z,4.3
2023-03-06T01:57:43.360Z,4.3
2023-03-06T02:03:35.832Z,4.2
2023-03-06T02:09:26.741Z,4.1
2023-03-06T02:15:29.791Z,4.2
2023-03-06T02:21:22.644Z,4
2023-03-06T02:27:27.878Z,4.1
2023-03-06T02:33:21.148Z,4
2023-03-06T02:39:13.736Z,3.9
2023-03-06T02:45:03.431Z,3.9
2023-03-06T02:50:56.406Z,4
2023-03-06T02:56:48.155Z,4
2023-03-06T03:02:44.058Z,4
2023-03-06T03:08:36.331Z,4.1
2023-03-06T03:14:29.192Z,4
2023-03-06T03:20:20.508Z,3.9
2023-03-06T03:26:10.966Z,3.9
2023-03-06T03:32:01.482Z,3.9
2023-03-06T03:37:52.172Z,4
2023-03-06T03:43:43.005Z,3.8
2023-03-06T03:49:32.965Z,3.8
2023-03-06T03:55:23.873Z,3.8
2023-03-06T04:01:12.179Z,3.8
2023-03-06T04:07:03.738Z,3.7
2023-03-06T04:12:54.985Z,3.9
2023-03-06T04:18:45.338Z,3.8
2023-03-06T04:24:39.520Z,3.8
2023-03-06T04:30:29.602Z,3.7
2023-03-06T04:36:20.605Z,3.7
2023-03-06T04:42:12.900Z,3.8
2023-03-06T04:48:02.417Z,3.8
2023-03-06T04:53:54.386Z,3.8
2023-03-06T04:59:44.719Z,3.8
2023-03-06T05:05:38.139Z,3.7
2023-03-06T05:11:28.178Z,3.7
2023-03-06T05:24:21.084Z,3.7
2023-03-06T05:30:24.495Z,3.6
2023-03-06T05:36:18.258Z,3.8
2023-03-06T05:42:11.885Z,3.7
2023-03-06T05:48:09.205Z,3.6
2023-03-06T05:54:11.382Z,3.7
2023-03-06T06:00:03.781Z,3.6
2023-03-06T06:06:13.742Z,3.7
2023-03-06T06:12:09.479Z,3.7
2023-03-06T06:18:00.277Z,3.6
2023-03-06T06:23:53.612Z,3.7
2023-03-06T06:29:48.934Z,3.8
2023-03-06T06:35:41.105Z,3.7
2023-03-06T06:41:50.920Z,3.7
2023-03-06T06:48:26.398Z,3.7
2023-03-06T06:54:21.614Z,3.6
2023-03-06T07:00:19.813Z,3.7
2023-03-06T07:06:26.408Z,3.7
2023-03-06T07:12:18.135Z,3.7
2023-03-06T07:18:11.431Z,3.7
2023-03-06T07:24:09.473Z,3.7
2023-03-06T07:30:09.155Z,3.7
2023-03-06T07:36:00.276Z,3.7
2023-03-06T07:41:58.037Z,3.8
2023-03-06T07:47:51.903Z,3.7
2023-03-06T07:53:44.305Z,3.9
2023-03-06T07:55:10.820Z,3.8
2023-03-06T08:00:59.641Z,3.9
2023-03-06T08:07:03.723Z,3.9
2023-03-06T08:13:03.294Z,3.8
2023-03-06T08:19:07.664Z,4
2023-03-06T08:25:00.679Z,4
2023-03-06T08:30:54.170Z,4.1
2023-03-06T08:37:00.218Z,4.1
2023-03-06T08:43:07.134Z,4.1
2023-03-06T08:55:09.360Z,4.3
2023-03-06T09:01:27.034Z,4.4
2023-03-06T09:07:21.368Z,4.5
2023-03-06T09:13:28.832Z,4.6
2023-03-06T09:19:23.865Z,4.7
2023-03-06T09:25:28.188Z,4.7
2023-03-06T09:31:23.292Z,4.7
2023-03-06T09:37:18.241Z,4.9
2023-03-06T09:43:27.601Z,5
2023-03-06T09:49:18.490Z,5
2023-03-06T09:55:13.946Z,5
2023-03-06T10:01:08.029Z,5
2023-03-06T10:07:04.949Z,5.1
2023-03-06T10:12:57.179Z,5.1
2023-03-06T10:25:07.934Z,5.3
2023-03-06T10:31:03.563Z,5.5
2023-03-06T10:49:32.300Z,5.4
2023-03-06T11:13:34.017Z,5.8
2023-03-06T11:19:28.926Z,5.7
2023-03-06T11:43:18.167Z,6.1
2023-03-06T11:49:31.878Z,6.1
2023-03-06T12:19:27.293Z,6.2
2023-03-06T20:28:46.498Z,4.6
2023-03-06T21:00:28.019Z,4.7
2023-03-06T21:06:33.772Z,4.8
2023-03-06T21:19:00.601Z,4.8
2023-03-06T21:25:02.684Z,4.8
2023-03-06T21:30:56.140Z,4.7
2023-03-06T21:55:38.287Z,4.7
2023-03-06T22:01:35.202Z,4.7
2023-03-06T23:07:32.696Z,4.7
2023-03-06T23:13:26.072Z,4.7
2023-03-06T23:19:24.700Z,4.8
2023-03-06T23:50:04.225Z,4.7
